createdAt,value
2022-11-29T00:01:26.527Z,2.33
2022-11-29T00:03:55.296Z,2.29
2022-11-29T00:06:27.650Z,2.32
2022-11-29T00:08:56.787Z,2.24
2022-11-29T00:11:40.501Z,2.26
2022-11-29T00:14:10.239Z,2.32
2022-11-29T00:16:40.882Z,2.35
2022-11-29T00:19:09.881Z,2.32
2022-11-29T00:21:39.400Z,2.29
2022-11-29T00:24:08.033Z,2.30
2022-11-29T00:26:37.018Z,2.32
2022-11-29T00:29:05.324Z,2.28
2022-11-29T00:31:33.861Z,2.27
2022-11-29T00:34:04.428Z,2.24
2022-11-29T00:36:32.268Z,2.28
2022-11-29T00:39:02.021Z,2.29
2022-11-29T00:41:29.925Z,2.30
2022-11-29T00:43:58.171Z,2.33
2022-11-29T00:46:26.247Z,2.28
2022-11-29T00:48:54.189Z,2.27
2022-11-29T00:51:22.023Z,2.23
2022-11-29T00:53:50.460Z,2.27
2022-11-29T00:56:19.756Z,2.26
2022-11-29T00:58:48.689Z,2.24
2022-11-29T01:01:17.217Z,2.28
2022-11-29T01:03:45.078Z,2.31
2022-11-29T01:06:15.372Z,2.27
2022-11-29T01:08:45.613Z,2.21
2022-11-29T01:11:16.599Z,2.29
2022-11-29T01:13:46.794Z,2.29
2022-11-29T01:16:15.609Z,2.22
2022-11-29T01:18:44.109Z,2.22
2022-11-29T01:21:14.996Z,2.22
2022-11-29T01:23:45.065Z,2.22
2022-11-29T01:26:15.505Z,2.21
2022-11-29T01:28:46.422Z,2.09
2022-11-29T01:31:17.284Z,2.02
2022-11-29T01:33:45.564Z,2.13
2022-11-29T01:36:14.493Z,2.16
2022-11-29T01:38:43.562Z,2.16
2022-11-29T01:41:16.412Z,2.18
2022-11-29T01:44:04.944Z,2.15
2022-11-29T01:46:34.308Z,2.13
2022-11-29T01:49:07.821Z,2.11
2022-11-29T01:51:37.511Z,2.10
2022-11-29T01:54:08.202Z,2.10
2022-11-29T01:56:36.589Z,2.09
2022-11-29T01:59:09.042Z,2.05
2022-11-29T02:01:37.487Z,2.04
2022-11-29T02:04:07.018Z,2.03
2022-11-29T02:06:35.722Z,2.04
2022-11-29T02:09:04.311Z,2.04
2022-11-29T02:12:00.006Z,2.03
2022-11-29T02:14:48.753Z,2.02
2022-11-29T02:17:26.130Z,2.05
2022-11-29T02:20:23.889Z,2.05
2022-11-29T02:23:03.038Z,2.05
2022-11-29T02:25:58.491Z,1.93
2022-11-29T02:29:21.090Z,2.00
2022-11-29T02:32:25.763Z,1.98
2022-11-29T02:34:59.839Z,1.93
2022-11-29T02:38:01.147Z,1.96
2022-11-29T02:40:55.519Z,1.95
2022-11-29T02:43:43.647Z,1.98
2022-11-29T02:46:26.698Z,1.95
2022-11-29T02:49:03.632Z,2.00
2022-11-29T02:51:41.149Z,2.00
2022-11-29T02:54:17.442Z,1.86
2022-11-29T02:56:52.269Z,2.00
2022-11-29T02:59:31.709Z,2.00
2022-11-29T03:02:08.141Z,1.98
2022-11-29T03:04:46.826Z,1.99
2022-11-29T03:07:24.923Z,1.99
2022-11-29T03:10:01.670Z,1.99
2022-11-29T03:12:38.894Z,1.99
2022-11-29T03:15:20.587Z,1.99
2022-11-29T03:18:02.327Z,2.02
2022-11-29T03:20:39.804Z,2.02
2022-11-29T03:23:20.222Z,2.02
2022-11-29T03:25:53.479Z,2.01
2022-11-29T03:28:26.059Z,2.03
2022-11-29T03:31:02.416Z,2.02
2022-11-29T03:33:38.996Z,1.98
2022-11-29T03:36:17.170Z,2.00
2022-11-29T03:38:47.264Z,2.00
2022-11-29T03:41:21.769Z,2.00
2022-11-29T03:43:57.570Z,1.99
2022-11-29T03:46:34.198Z,1.94
2022-11-29T03:49:08.124Z,2.00
2022-11-29T03:51:50.426Z,1.98
2022-11-29T03:54:23.399Z,1.95
2022-11-29T03:56:52.157Z,2.03
2022-11-29T03:59:36.093Z,2.03
2022-11-29T04:02:41.203Z,2.03
2022-11-29T04:05:32.480Z,2.05
2022-11-29T04:08:44.147Z,2.03
2022-11-29T04:11:54.987Z,2.03
2022-11-29T04:14:34.579Z,2.02
2022-11-29T04:17:35.019Z,2.02
2022-11-29T04:20:48.503Z,2.04
2022-11-29T04:23:47.749Z,2.02
2022-11-29T04:26:38.285Z,2.01
2022-11-29T04:29:34.264Z,1.97
2022-11-29T04:32:22.511Z,1.97
2022-11-29T04:35:13.484Z,1.99
2022-11-29T04:38:07.064Z,2.00
2022-11-29T04:40:53.369Z,1.96
2022-11-29T04:43:42.254Z,2.00
2022-11-29T04:46:37.210Z,1.98
2022-11-29T04:49:24.947Z,1.96
2022-11-29T04:52:22.105Z,1.96
2022-11-29T04:54:57.849Z,1.95
2022-11-29T04:57:33.906Z,1.95
2022-11-29T05:00:09.880Z,1.95
2022-11-29T05:02:45.068Z,1.95
2022-11-29T05:05:25.734Z,1.95
2022-11-29T05:08:08.483Z,1.96
2022-11-29T05:10:42.954Z,1.95
2022-11-29T05:13:16.433Z,1.94
2022-11-29T05:16:09.704Z,1.97
2022-11-29T05:18:58.515Z,1.96
2022-11-29T05:21:39.462Z,1.97
2022-11-29T05:24:18.872Z,1.98
2022-11-29T05:26:55.838Z,2.01
2022-11-29T05:29:35.155Z,2.00
2022-11-29T05:32:22.501Z,1.99
2022-11-29T05:35:03.136Z,1.98
2022-11-29T05:37:44.119Z,1.97
2022-11-29T05:40:41.795Z,1.96
2022-11-29T05:43:42.116Z,1.96
2022-11-29T05:46:18.442Z,1.96
2022-11-29T05:48:57.802Z,1.90
2022-11-29T05:51:34.994Z,1.92
2022-11-29T05:54:14.460Z,1.95
2022-11-29T05:56:53.948Z,1.93
2022-11-29T05:59:24.428Z,1.95
2022-11-29T06:01:59.071Z,1.94
2022-11-29T06:04:40.081Z,2.02
2022-11-29T06:07:15.300Z,2.06
2022-11-29T06:09:50.246Z,1.94
2022-11-29T06:12:21.873Z,2.05
2022-11-29T06:15:07.373Z,2.07
2022-11-29T06:18:03.280Z,2.08
2022-11-29T06:21:03.944Z,2.08
2022-11-29T06:23:58.970Z,2.08
2022-11-29T06:26:41.128Z,2.08
2022-11-29T06:29:25.257Z,2.06
2022-11-29T06:31:59.736Z,2.05
2022-11-29T06:34:34.332Z,2.02
2022-11-29T06:37:15.645Z,2.02
2022-11-29T06:39:44.086Z,2.05
2022-11-29T06:42:12.045Z,2.12
2022-11-29T06:44:40.427Z,2.09
2022-11-29T06:47:15.940Z,2.09
2022-11-29T06:49:48.926Z,2.10
2022-11-29T06:52:27.129Z,2.16
2022-11-29T06:55:11.613Z,2.16
2022-11-29T06:57:51.454Z,2.14
2022-11-29T07:00:22.192Z,2.15
2022-11-29T07:03:13.478Z,2.11
2022-11-29T07:05:41.906Z,2.13
2022-11-29T07:08:16.836Z,2.18
2022-11-29T07:10:45.700Z,2.17
2022-11-29T07:13:14.770Z,2.13
2022-11-29T07:15:54.329Z,2.14
2022-11-29T07:18:32.417Z,2.17
2022-11-29T07:21:11.124Z,2.13
2022-11-29T07:23:50.955Z,2.18
2022-11-29T07:26:30.337Z,2.15
2022-11-29T07:29:17.188Z,2.19
2022-11-29T07:31:55.565Z,2.22
2022-11-29T07:34:31.046Z,2.18
2022-11-29T07:37:08.071Z,2.17
2022-11-29T07:39:46.652Z,2.22
2022-11-29T07:42:21.548Z,2.26
2022-11-29T07:45:01.352Z,2.22
2022-11-29T07:47:35.306Z,2.25
2022-11-29T07:50:03.735Z,2.25
2022-11-29T07:52:31.752Z,2.25
2022-11-29T07:55:00.963Z,2.18
2022-11-29T07:57:28.712Z,2.29
2022-11-29T07:59:56.602Z,2.31
2022-11-29T08:02:29.196Z,2.33
2022-11-29T08:04:57.091Z,2.32
2022-11-29T08:07:26.776Z,2.26
2022-11-29T08:09:54.962Z,2.30
2022-11-29T08:12:24.133Z,2.30
2022-11-29T08:14:52.036Z,2.31
2022-11-29T08:17:19.840Z,2.36
2022-11-29T08:19:47.738Z,2.35
2022-11-29T08:22:15.650Z,2.39
2022-11-29T08:24:44.176Z,2.39
2022-11-29T08:27:12.162Z,2.37
2022-11-29T08:29:41.649Z,2.37
2022-11-29T08:32:10.057Z,2.41
2022-11-29T08:34:38.056Z,2.44
2022-11-29T08:37:05.892Z,2.34
2022-11-29T08:39:33.713Z,2.43
2022-11-29T08:42:01.800Z,2.44
2022-11-29T08:44:30.930Z,2.47
2022-11-29T08:47:17.297Z,2.53
2022-11-29T08:49:59.294Z,2.53
2022-11-29T08:52:44.550Z,2.53
2022-11-29T08:55:13.925Z,2.59
2022-11-29T08:57:43.226Z,2.63
2022-11-29T09:00:12.588Z,2.66
2022-11-29T09:02:42.360Z,2.65
2022-11-29T09:05:11.865Z,2.66
2022-11-29T09:07:40.238Z,2.67
2022-11-29T09:10:09.401Z,2.68
2022-11-29T09:12:38.106Z,2.67
2022-11-29T09:15:06.915Z,2.67
2022-11-29T09:17:35.017Z,2.60
2022-11-29T09:20:05.367Z,2.71
2022-11-29T09:22:33.231Z,2.70
2022-11-29T09:25:01.120Z,2.71
2022-11-29T09:27:29.051Z,2.76
2022-11-29T09:29:58.126Z,2.78
2022-11-29T09:32:25.950Z,2.79
2022-11-29T09:34:53.844Z,2.83
2022-11-29T09:37:22.988Z,2.87
2022-11-29T09:39:50.861Z,2.91
2022-11-29T09:42:39.528Z,2.94
2022-11-29T09:45:10.575Z,2.94
2022-11-29T09:48:04.684Z,2.99
2022-11-29T09:50:35.545Z,2.99
2022-11-29T09:53:20.807Z,3.01
2022-11-29T09:56:01.108Z,2.88
2022-11-29T09:58:34.018Z,3.07
2022-11-29T10:01:06.481Z,3.05
2022-11-29T10:03:39.346Z,3.09
2022-11-29T10:06:14.973Z,3.08
2022-11-29T10:08:49.717Z,3.07
2022-11-29T10:11:23.965Z,3.13
2022-11-29T10:13:54.880Z,3.10
2022-11-29T10:16:28.654Z,3.14
2022-11-29T10:19:04.874Z,3.09
2022-11-29T10:21:36.529Z,3.07
2022-11-29T10:24:11.448Z,3.18
2022-11-29T10:26:39.311Z,3.24
2022-11-29T10:29:07.082Z,3.25
2022-11-29T10:31:43.249Z,3.31
2022-11-29T10:34:15.186Z,3.30
2022-11-29T10:36:45.760Z,3.34
2022-11-29T10:39:20.294Z,3.36
2022-11-29T10:41:52.920Z,3.37
2022-11-29T10:44:21.088Z,3.39
2022-11-29T10:46:49.981Z,3.44
2022-11-29T10:49:20.631Z,3.42
2022-11-29T10:51:48.586Z,3.48
2022-11-29T10:54:31.086Z,3.46
2022-11-29T10:57:01.557Z,3.59
2022-11-29T10:59:33.065Z,3.61
2022-11-29T11:02:04.123Z,3.61
2022-11-29T11:04:36.039Z,3.60
2022-11-29T11:07:05.931Z,3.70
2022-11-29T11:09:38.003Z,3.74
2022-11-29T11:12:08.623Z,3.79
2022-11-29T11:14:39.274Z,3.76
2022-11-29T11:17:17.280Z,3.79
2022-11-29T11:19:55.877Z,3.81
2022-11-29T11:22:25.944Z,3.79
2022-11-29T11:25:00.824Z,3.79
2022-11-29T11:27:31.306Z,3.86
2022-11-29T11:29:59.695Z,3.79
2022-11-29T11:32:27.766Z,3.81
2022-11-29T11:34:57.904Z,3.86
2022-11-29T11:37:28.309Z,3.86
2022-11-29T11:40:01.376Z,3.81
2022-11-29T11:42:38.834Z,3.77
2022-11-29T11:45:24.343Z,3.76
2022-11-29T11:47:54.786Z,3.78
2022-11-29T11:50:32.794Z,3.71
2022-11-29T11:53:05.246Z,3.61
2022-11-29T11:55:40.505Z,3.63
2022-11-29T11:58:22.875Z,3.61
2022-11-29T12:01:07.599Z,3.60
2022-11-29T12:03:49.240Z,3.63
2022-11-29T12:06:41.620Z,3.61
2022-11-29T12:09:19.399Z,3.56
2022-11-29T12:12:00.186Z,3.36
2022-11-29T12:14:38.372Z,3.51
2022-11-29T12:17:19.757Z,3.53
2022-11-29T12:20:01.039Z,3.55
2022-11-29T12:22:43.845Z,3.58
2022-11-29T12:25:20.644Z,3.51
2022-11-29T12:27:51.403Z,3.46
2022-11-29T12:30:19.676Z,3.43
2022-11-29T12:33:08.225Z,3.45
2022-11-29T12:35:51.161Z,3.37
2022-11-29T12:38:37.855Z,3.35
2022-11-29T12:41:23.522Z,3.27
2022-11-29T12:44:06.341Z,3.28
2022-11-29T12:46:35.573Z,3.24
2022-11-29T12:49:14.434Z,3.23
2022-11-29T12:51:53.981Z,3.19
2022-11-29T12:54:40.952Z,3.18
2022-11-29T12:57:16.597Z,3.12
2022-11-29T13:00:04.653Z,3.16
2022-11-29T13:02:43.465Z,3.16
2022-11-29T13:05:21.394Z,3.05
2022-11-29T13:08:08.467Z,3.01
2022-11-29T13:10:51.064Z,3.04
2022-11-29T13:13:25.765Z,3.02
2022-11-29T13:16:04.406Z,3.03
2022-11-29T13:18:40.152Z,3.02
2022-11-29T13:21:14.471Z,2.88
2022-11-29T13:26:41.028Z,2.87
2022-11-29T13:29:14.871Z,2.85
2022-11-29T13:31:45.252Z,2.83
2022-11-29T13:34:20.359Z,2.75
2022-11-29T13:37:01.613Z,2.76
2022-11-29T13:39:39.918Z,2.77
2022-11-29T13:42:14.267Z,2.74
2022-11-29T13:44:47.914Z,2.74
2022-11-29T13:47:19.301Z,2.69
2022-11-29T13:49:52.741Z,2.73
2022-11-29T13:52:36.244Z,2.66
2022-11-29T13:55:28.876Z,2.78
2022-11-29T13:58:20.428Z,2.80
2022-11-29T14:00:52.791Z,2.76
2022-11-29T14:03:30.300Z,2.73
2022-11-29T14:06:15.060Z,2.56
2022-11-29T14:09:22.504Z,2.66
2022-11-29T14:11:56.639Z,2.68
2022-11-29T14:14:29.544Z,2.63
2022-11-29T14:17:00.930Z,2.59
2022-11-29T14:19:34.052Z,2.55
2022-11-29T14:22:20.327Z,2.56
2022-11-29T14:25:11.924Z,2.57
2022-11-29T14:28:03.967Z,2.55
2022-11-29T14:30:40.466Z,2.50
2022-11-29T14:33:40.984Z,2.49
2022-11-29T14:36:25.050Z,2.40
2022-11-29T14:39:03.210Z,2.55
2022-11-29T14:41:44.142Z,2.48
2022-11-29T14:44:19.135Z,2.52
2022-11-29T14:46:48.893Z,2.54
2022-11-29T14:49:23.960Z,2.52
2022-11-29T14:52:10.930Z,2.61
2022-11-29T14:54:55.130Z,2.55
2022-11-29T14:57:55.199Z,2.55
2022-11-29T15:00:24.988Z,2.53
2022-11-29T15:02:58.381Z,2.51
2022-11-29T15:05:34.412Z,2.57
2022-11-29T15:08:10.470Z,2.63
2022-11-29T15:10:43.144Z,2.50
2022-11-29T15:13:14.638Z,2.61
2022-11-29T15:16:08.710Z,2.64
2022-11-29T15:18:59.784Z,2.64
2022-11-29T15:21:35.877Z,2.61
2022-11-29T15:24:12.153Z,2.62
2022-11-29T15:26:55.583Z,2.64
2022-11-29T15:29:24.378Z,2.65
2022-11-29T15:31:55.110Z,2.66
2022-11-29T15:34:30.118Z,2.68
2022-11-29T15:36:58.200Z,2.65
2022-11-29T15:39:31.298Z,2.66
2022-11-29T15:42:11.102Z,2.67
2022-11-29T15:44:39.601Z,2.69
2022-11-29T15:47:26.266Z,2.65
2022-11-29T15:49:55.373Z,2.66
2022-11-29T15:52:29.013Z,2.61
2022-11-29T15:55:01.794Z,2.64
2022-11-29T15:57:36.059Z,2.62
2022-11-29T16:00:07.760Z,2.58
2022-11-29T16:02:39.450Z,2.65
2022-11-29T16:05:21.310Z,2.65
2022-11-29T16:07:53.615Z,2.66
2022-11-29T16:10:30.467Z,2.63
2022-11-29T16:13:05.336Z,2.65
2022-11-29T16:15:34.869Z,2.70
2022-11-29T16:18:06.758Z,2.73
2022-11-29T16:20:34.676Z,2.73
2022-11-29T16:23:11.554Z,2.72
2022-11-29T16:26:06.782Z,2.70
2022-11-29T16:28:37.999Z,2.69
2022-11-29T16:31:06.075Z,2.67
2022-11-29T16:33:34.070Z,2.66
2022-11-29T16:36:07.865Z,2.70
2022-11-29T16:38:35.858Z,2.73
2022-11-29T16:41:08.270Z,2.75
2022-11-29T16:43:55.979Z,2.80
2022-11-29T16:46:40.286Z,2.76
2022-11-29T16:49:34.903Z,2.75
2022-11-29T16:52:05.491Z,2.71
2022-11-29T16:54:34.204Z,2.67
2022-11-29T16:57:07.439Z,2.70
2022-11-29T16:59:35.426Z,2.65
2022-11-29T17:02:03.411Z,2.69
2022-11-29T17:04:31.235Z,2.67
2022-11-29T17:06:59.070Z,2.65
2022-11-29T17:09:28.959Z,2.66
2022-11-29T17:11:59.798Z,2.55
2022-11-29T17:14:29.472Z,2.57
2022-11-29T17:17:00.924Z,2.63
2022-11-29T17:19:30.441Z,2.62
2022-11-29T17:21:58.516Z,2.65
2022-11-29T17:27:20.727Z,2.71
2022-11-29T17:29:49.904Z,2.72
2022-11-29T17:32:20.841Z,2.74
2022-11-29T17:34:51.260Z,2.78
2022-11-29T17:37:19.023Z,2.81
2022-11-29T17:39:49.136Z,2.84
2022-11-29T17:42:17.070Z,2.80
2022-11-29T17:44:44.857Z,2.82
2022-11-29T17:47:14.048Z,2.82
2022-11-29T17:49:42.065Z,2.83
2022-11-29T17:52:09.864Z,2.87
2022-11-29T17:54:38.271Z,2.85
2022-11-29T17:57:06.188Z,2.87
2022-11-29T17:59:33.947Z,2.88
2022-11-29T18:02:03.919Z,2.90
2022-11-29T18:04:33.265Z,2.96
2022-11-29T18:07:01.584Z,2.92
2022-11-29T18:09:29.343Z,2.91
2022-11-29T18:11:57.204Z,2.99
2022-11-29T18:14:28.184Z,2.95
2022-11-29T18:16:56.446Z,2.98
2022-11-29T18:19:25.333Z,3.00
2022-11-29T18:21:54.581Z,3.01
2022-11-29T18:24:22.326Z,3.06
2022-11-29T18:26:50.108Z,3.06
2022-11-29T18:29:18.179Z,3.06
2022-11-29T18:31:47.449Z,3.14
2022-11-29T18:34:16.197Z,3.17
2022-11-29T18:36:46.345Z,3.16
2022-11-29T18:39:23.369Z,3.12
2022-11-29T18:41:51.511Z,3.14
2022-11-29T18:44:21.582Z,3.16
2022-11-29T18:46:49.599Z,3.13
2022-11-29T18:49:18.841Z,3.18
2022-11-29T18:51:48.416Z,3.09
2022-11-29T18:54:19.384Z,3.16
2022-11-29T18:56:47.432Z,3.13
2022-11-29T18:59:17.436Z,3.17
2022-11-29T19:01:48.744Z,3.08
2022-11-29T19:04:18.328Z,3.14
2022-11-29T19:06:46.381Z,3.16
2022-11-29T19:09:16.767Z,3.18
2022-11-29T19:11:45.959Z,3.14
2022-11-29T19:14:14.122Z,3.16
2022-11-29T19:16:46.885Z,3.15
2022-11-29T19:19:15.286Z,3.18
2022-11-29T19:21:43.551Z,3.21
2022-11-29T19:24:17.705Z,3.19
2022-11-29T19:26:48.870Z,3.19
2022-11-29T19:29:17.737Z,3.18
2022-11-29T19:31:45.763Z,3.18
2022-11-29T19:34:13.796Z,3.14
2022-11-29T19:36:44.531Z,3.00
2022-11-29T19:39:14.166Z,3.12
2022-11-29T19:41:44.019Z,3.12
2022-11-29T19:44:13.701Z,2.98
2022-11-29T19:46:43.877Z,3.22
2022-11-29T19:49:12.791Z,3.21
2022-11-29T19:51:40.804Z,3.22
2022-11-29T19:54:10.774Z,3.30
2022-11-29T19:56:39.291Z,3.31
2022-11-29T19:59:07.988Z,3.41
2022-11-29T20:01:42.538Z,3.32
2022-11-29T20:04:12.057Z,3.42
2022-11-29T20:06:40.140Z,3.36
2022-11-29T20:09:08.033Z,3.33
2022-11-29T20:11:35.876Z,3.30
2022-11-29T20:14:05.125Z,3.20
2022-11-29T20:16:33.875Z,3.26
2022-11-29T20:19:03.135Z,3.19
2022-11-29T20:21:33.836Z,3.19
2022-11-29T20:24:03.290Z,3.17
2022-11-29T20:26:33.178Z,3.20
2022-11-29T20:29:02.129Z,3.17
2022-11-29T20:31:30.650Z,3.18
2022-11-29T20:33:58.797Z,3.21
2022-11-29T20:36:45.591Z,3.20
2022-11-29T20:39:24.788Z,3.15
2022-11-29T20:42:11.710Z,3.13
2022-11-29T20:44:42.269Z,3.16
2022-11-29T20:47:14.917Z,3.13
2022-11-29T20:49:43.234Z,3.24
2022-11-29T20:52:19.909Z,3.31
2022-11-29T20:54:48.067Z,3.32
2022-11-29T20:57:15.827Z,3.29
2022-11-29T20:59:43.958Z,3.28
2022-11-29T21:02:12.013Z,3.34
2022-11-29T21:04:40.041Z,3.36
2022-11-29T21:07:07.932Z,3.46
2022-11-29T21:09:37.117Z,3.43
2022-11-29T21:12:05.519Z,3.37
2022-11-29T21:14:33.860Z,3.36
2022-11-29T21:17:02.765Z,3.36
2022-11-29T21:19:31.071Z,3.41
2022-11-29T21:22:06.030Z,3.28
2022-11-29T21:24:46.047Z,3.39
2022-11-29T21:27:18.716Z,3.36
2022-11-29T21:29:47.137Z,3.34
2022-11-29T21:32:22.678Z,3.42
2022-11-29T21:34:50.858Z,3.50
2022-11-29T21:37:21.597Z,3.53
2022-11-29T21:39:52.299Z,3.52
2022-11-29T21:42:20.340Z,3.56
2022-11-29T21:44:48.484Z,3.58
2022-11-29T21:47:16.541Z,3.49
2022-11-29T21:49:46.312Z,3.54
2022-11-29T21:52:19.031Z,3.42
2022-11-29T21:54:51.797Z,3.43
2022-11-29T21:57:19.619Z,3.45
2022-11-29T21:59:47.572Z,3.47
2022-11-29T22:02:15.458Z,3.35
2022-11-29T22:04:43.466Z,3.35
2022-11-29T22:07:11.345Z,3.35
2022-11-29T22:09:39.512Z,3.29
2022-11-29T22:12:31.880Z,3.31
2022-11-29T22:14:56.843Z,3.27
2022-11-29T22:17:24.847Z,3.24
2022-11-29T22:19:52.607Z,3.20
2022-11-29T22:22:20.414Z,3.18
2022-11-29T22:24:48.462Z,3.21
2022-11-29T22:27:18.587Z,3.16
2022-11-29T22:29:46.460Z,3.13
2022-11-29T22:32:14.305Z,3.10
2022-11-29T22:34:42.028Z,3.10
2022-11-29T22:37:09.909Z,3.03
2022-11-29T22:39:37.746Z,3.02
2022-11-29T22:42:05.538Z,3.02
2022-11-29T22:44:34.893Z,2.99
2022-11-29T22:47:02.790Z,2.96
2022-11-29T22:49:33.180Z,2.98
2022-11-29T22:52:01.169Z,3.01
2022-11-29T22:54:29.029Z,3.05
2022-11-29T22:56:56.986Z,3.03
2022-11-29T22:59:24.878Z,3.08
2022-11-29T23:01:54.155Z,3.06
2022-11-29T23:04:22.247Z,3.05
2022-11-29T23:06:50.090Z,3.12
2022-11-29T23:09:21.622Z,3.10
2022-11-29T23:11:52.277Z,3.13
2022-11-29T23:14:20.640Z,3.14
2022-11-29T23:16:48.514Z,3.13
2022-11-29T23:19:18.358Z,3.16
2022-11-29T23:21:46.508Z,3.15
2022-11-29T23:24:14.676Z,3.16
2022-11-29T23:26:44.921Z,3.23
2022-11-29T23:29:14.863Z,3.25
2022-11-29T23:31:42.709Z,3.23
2022-11-29T23:34:10.650Z,3.17
2022-11-29T23:36:39.808Z,3.16
2022-11-29T23:39:07.825Z,3.17
2022-11-29T23:41:36.656Z,3.13
2022-11-29T23:44:05.215Z,3.08
2022-11-29T23:46:33.207Z,3.02
2022-11-29T23:49:00.985Z,3.03
2022-11-29T23:51:28.774Z,3.02
2022-11-29T23:53:58.017Z,2.89
2022-11-29T23:56:25.863Z,3.01
2022-11-29T23:58:53.673Z,3.03
